createdAt,value
2023-05-01T00:00:53.024Z,0.00
2023-05-01T00:01:53.000Z,0.00
2023-05-01T00:02:53.075Z,0.00
2023-05-01T00:03:53.222Z,0.00
2023-05-01T00:04:53.077Z,0.00
2023-05-01T00:05:52.999Z,0.00
2023-05-01T00:06:53.053Z,0.00
2023-05-01T00:07:53.002Z,14.28
2023-05-01T00:08:52.996Z,25.39
2023-05-01T00:09:52.988Z,25.00
2023-05-01T00:10:53.010Z,25.80
2023-05-01T00:11:53.025Z,25.96
2023-05-01T00:12:53.088Z,28.11
2023-05-01T00:13:53.178Z,25.44
2023-05-01T00:14:53.210Z,25.00
2023-05-01T00:15:53.285Z,27.04
2023-05-01T00:16:53.382Z,25.00
2023-05-01T00:17:53.451Z,25.60
2023-05-01T00:18:53.497Z,25.00
2023-05-01T00:19:53.648Z,26.37
2023-05-01T00:20:53.644Z,25.76
2023-05-01T00:21:53.694Z,25.00
2023-05-01T00:22:53.769Z,26.52
2023-05-01T00:23:53.846Z,26.22
2023-05-01T00:24:53.911Z,25.00
2023-05-01T00:25:53.978Z,25.00
2023-05-01T00:26:54.079Z,25.00
2023-05-01T00:27:54.121Z,25.45
2023-05-01T00:28:54.184Z,26.55
2023-05-01T00:29:54.678Z,25.00
2023-05-01T00:30:54.336Z,25.00
2023-05-01T00:31:54.434Z,25.29
2023-05-01T00:32:54.507Z,25.00
2023-05-01T00:33:54.525Z,26.18
2023-05-01T00:34:54.596Z,27.03
2023-05-01T00:35:54.664Z,25.62
2023-05-01T00:36:54.740Z,25.13
2023-05-01T00:37:54.807Z,25.90
2023-05-01T00:38:54.876Z,25.90
2023-05-01T00:39:55.144Z,27.11
2023-05-01T00:40:54.981Z,25.11
2023-05-01T00:41:55.032Z,25.87
2023-05-01T00:42:55.125Z,27.12
2023-05-01T00:43:55.200Z,25.01
2023-05-01T00:44:55.261Z,25.00
2023-05-01T00:45:55.374Z,26.93
2023-05-01T00:46:55.390Z,25.97
2023-05-01T00:47:55.546Z,26.65
2023-05-01T00:48:55.525Z,25.84
2023-05-01T00:49:55.918Z,25.00
2023-05-01T00:50:55.667Z,27.76
2023-05-01T00:51:55.736Z,26.54
2023-05-01T00:52:55.803Z,25.21
2023-05-01T00:53:55.867Z,27.46
2023-05-01T00:54:55.943Z,26.63
2023-05-01T00:55:55.995Z,27.16
2023-05-01T00:56:56.076Z,25.42
2023-05-01T00:57:56.143Z,25.67
2023-05-01T00:58:56.244Z,25.36
2023-05-01T00:59:56.515Z,26.68
2023-05-01T01:00:56.407Z,28.25
2023-05-01T01:01:56.755Z,25.88
2023-05-01T01:02:56.553Z,26.44
2023-05-01T01:03:56.610Z,26.99
2023-05-01T01:04:56.665Z,25.53
2023-05-01T01:05:56.706Z,28.66
2023-05-01T01:06:56.720Z,26.91
2023-05-01T01:07:56.788Z,26.10
2023-05-01T01:08:56.851Z,26.58
2023-05-01T01:09:57.253Z,27.40
2023-05-01T01:10:57.011Z,27.87
2023-05-01T01:11:57.059Z,25.02
2023-05-01T01:12:57.125Z,26.90
2023-05-01T01:13:57.187Z,26.31
2023-05-01T01:14:57.274Z,25.00
2023-05-01T01:15:57.348Z,26.75
2023-05-01T01:16:57.479Z,27.36
2023-05-01T01:17:57.521Z,26.69
2023-05-01T01:18:57.508Z,25.06
2023-05-01T01:19:57.848Z,26.45
2023-05-01T01:20:57.649Z,25.39
2023-05-01T01:21:57.689Z,26.01
2023-05-01T01:22:57.754Z,27.43
2023-05-01T01:23:57.814Z,26.69
2023-05-01T01:24:57.889Z,25.81
2023-05-01T01:25:57.970Z,25.50
2023-05-01T01:26:58.033Z,25.29
2023-05-01T01:27:58.104Z,25.70
2023-05-01T01:28:58.140Z,25.16
2023-05-01T01:29:58.385Z,26.05
2023-05-01T01:30:58.312Z,26.69
2023-05-01T01:31:58.322Z,26.30
2023-05-01T01:32:58.404Z,26.42
2023-05-01T01:33:58.423Z,25.00
2023-05-01T01:34:58.467Z,25.49
2023-05-01T01:35:58.518Z,25.00
2023-05-01T01:36:58.562Z,28.24
2023-05-01T01:37:58.597Z,25.75
2023-05-01T01:38:58.647Z,27.06
2023-05-01T01:39:58.916Z,27.24
2023-05-01T01:40:58.782Z,25.73
2023-05-01T01:41:58.855Z,27.50
2023-05-01T01:42:58.928Z,26.52
2023-05-01T01:43:58.985Z,25.42
2023-05-01T01:44:59.045Z,25.97
2023-05-01T01:45:59.126Z,27.42
2023-05-01T01:46:59.351Z,26.34
2023-05-01T01:47:59.205Z,26.07
2023-05-01T01:48:59.273Z,26.98
2023-05-01T01:49:59.345Z,27.32
2023-05-01T01:50:59.403Z,25.45
2023-05-01T01:51:59.503Z,26.42
2023-05-01T01:52:59.510Z,27.66
2023-05-01T01:53:59.567Z,26.82
2023-05-01T01:54:59.612Z,25.71
2023-05-01T01:56:01.759Z,27.31
2023-05-01T01:56:59.710Z,27.45
2023-05-01T01:57:59.663Z,27.47
2023-05-01T01:58:59.651Z,26.98
2023-05-01T01:59:59.638Z,25.89
2023-05-01T02:00:59.649Z,26.69
2023-05-01T02:01:59.696Z,25.89
2023-05-01T02:02:59.771Z,25.84
2023-05-01T02:03:59.774Z,27.32
2023-05-01T02:04:59.630Z,26.62
2023-05-01T02:05:59.633Z,26.35
2023-05-01T02:06:59.620Z,27.80
2023-05-01T02:07:59.600Z,26.77
2023-05-01T02:08:59.597Z,27.16
2023-05-01T02:09:59.586Z,26.62
2023-05-01T02:11:01.773Z,27.09
2023-05-01T02:11:59.577Z,30.37
2023-05-01T02:12:59.580Z,28.99
2023-05-01T02:13:59.566Z,26.87
2023-05-01T02:14:59.556Z,25.30
2023-05-01T02:15:59.576Z,25.03
2023-05-01T02:16:59.538Z,27.72
2023-05-01T02:17:59.599Z,26.23
2023-05-01T02:18:59.656Z,25.47
2023-05-01T02:19:59.514Z,25.12
2023-05-01T02:20:59.513Z,27.70
2023-05-01T02:21:59.504Z,26.87
2023-05-01T02:22:59.489Z,25.00
2023-05-01T02:23:59.477Z,26.13
2023-05-01T02:24:59.473Z,26.87
2023-05-01T02:25:59.467Z,27.20
2023-05-01T02:26:59.499Z,27.21
2023-05-01T02:27:59.453Z,27.09
2023-05-01T02:28:59.441Z,27.04
2023-05-01T02:29:59.434Z,28.38
2023-05-01T02:30:59.429Z,27.75
2023-05-01T02:31:59.558Z,28.28
2023-05-01T02:32:59.468Z,25.93
2023-05-01T02:33:59.421Z,26.56
2023-05-01T02:34:59.413Z,27.76
2023-05-01T02:35:59.381Z,26.50
2023-05-01T02:36:59.365Z,25.98
2023-05-01T02:37:59.392Z,26.92
2023-05-01T02:38:59.460Z,26.92
2023-05-01T02:39:59.616Z,27.33
2023-05-01T02:40:59.599Z,27.28
2023-05-01T02:41:59.652Z,28.08
2023-05-01T02:42:59.725Z,27.81
2023-05-01T02:43:59.796Z,26.57
2023-05-01T02:44:59.833Z,26.06
2023-05-01T02:45:59.962Z,26.73
2023-05-01T02:47:00.080Z,28.01
2023-05-01T02:48:00.156Z,26.16
2023-05-01T02:49:00.117Z,26.39
2023-05-01T02:50:00.193Z,25.23
2023-05-01T02:51:00.254Z,27.00
2023-05-01T02:52:00.283Z,26.01
2023-05-01T02:53:00.343Z,26.75
2023-05-01T02:54:00.405Z,26.40
2023-05-01T02:55:00.451Z,28.26
2023-05-01T02:56:00.529Z,25.87
2023-05-01T02:57:00.591Z,27.26
2023-05-01T02:58:00.692Z,26.08
2023-05-01T02:59:00.720Z,26.57
2023-05-01T03:00:00.768Z,25.31
2023-05-01T03:01:00.879Z,28.19
2023-05-01T03:02:00.889Z,26.02
2023-05-01T03:03:00.966Z,25.82
2023-05-01T03:04:01.016Z,25.33
2023-05-01T03:05:01.056Z,26.25
2023-05-01T03:06:01.119Z,27.21
2023-05-01T03:07:01.173Z,28.42
2023-05-01T03:08:01.214Z,26.84
2023-05-01T03:09:01.241Z,26.76
2023-05-01T03:10:01.312Z,25.00
2023-05-01T03:11:01.366Z,26.78
2023-05-01T03:12:01.427Z,28.31
2023-05-01T03:13:01.486Z,27.82
2023-05-01T03:14:01.543Z,26.97
2023-05-01T03:15:01.603Z,25.35
2023-05-01T03:16:01.706Z,26.58
2023-05-01T03:17:01.717Z,27.05
2023-05-01T03:18:01.882Z,28.50
2023-05-01T03:19:01.862Z,28.37
2023-05-01T03:20:01.935Z,26.66
2023-05-01T03:21:01.993Z,26.31
2023-05-01T03:22:02.061Z,25.38
2023-05-01T03:23:02.206Z,28.37
2023-05-01T03:24:02.200Z,27.90
2023-05-01T03:25:02.292Z,26.23
2023-05-01T03:26:02.336Z,25.55
2023-05-01T03:27:02.389Z,27.12
2023-05-01T03:28:02.427Z,27.82
2023-05-01T03:29:02.496Z,27.19
2023-05-01T03:30:02.587Z,26.94
2023-05-01T03:31:02.635Z,26.38
2023-05-01T03:32:02.752Z,27.87
2023-05-01T03:33:02.778Z,27.10
2023-05-01T03:34:02.804Z,25.78
2023-05-01T03:35:02.899Z,27.11
2023-05-01T03:36:02.925Z,27.78
2023-05-01T03:37:02.995Z,28.03
2023-05-01T03:38:03.063Z,26.11
2023-05-01T03:39:03.175Z,27.27
2023-05-01T03:40:03.197Z,27.51
2023-05-01T03:41:03.261Z,27.39
2023-05-01T03:42:03.341Z,25.80
2023-05-01T03:43:03.396Z,27.55
2023-05-01T03:44:03.443Z,25.83
2023-05-01T03:45:03.498Z,26.78
2023-05-01T03:46:03.581Z,26.34
2023-05-01T03:47:03.625Z,27.31
2023-05-01T03:48:03.759Z,27.03
2023-05-01T03:49:04.548Z,26.00
2023-05-01T03:50:03.831Z,26.87
2023-05-01T03:51:03.902Z,27.58
2023-05-01T03:52:03.963Z,28.01
2023-05-01T03:53:04.016Z,26.76
2023-05-01T03:54:04.095Z,28.69
2023-05-01T03:55:04.162Z,26.47
2023-05-01T03:56:04.194Z,27.52
2023-05-01T03:57:04.228Z,27.26
2023-05-01T03:58:04.264Z,26.67
2023-05-01T03:59:04.330Z,26.15
2023-05-01T04:00:04.397Z,28.90
2023-05-01T04:01:04.459Z,25.79
2023-05-01T04:02:04.567Z,27.54
2023-05-01T04:03:04.745Z,26.68
2023-05-01T04:04:04.748Z,26.26
2023-05-01T04:05:04.680Z,26.78
2023-05-01T04:06:04.772Z,25.78
2023-05-01T04:07:04.787Z,26.22
2023-05-01T04:08:04.834Z,27.37
2023-05-01T04:09:04.871Z,26.36
2023-05-01T04:10:04.917Z,26.24
2023-05-01T04:11:05.011Z,26.27
2023-05-01T04:12:04.979Z,27.00
2023-05-01T04:13:05.023Z,28.06
2023-05-01T04:14:05.056Z,26.41
2023-05-01T04:15:05.098Z,26.94
2023-05-01T04:16:05.184Z,25.97
2023-05-01T04:17:05.197Z,28.54
2023-05-01T04:18:05.314Z,26.86
2023-05-01T04:19:05.255Z,26.58
2023-05-01T04:20:05.283Z,26.77
2023-05-01T04:21:05.322Z,27.39
2023-05-01T04:22:05.354Z,26.32
2023-05-01T04:23:05.399Z,26.74
2023-05-01T04:24:05.429Z,26.86
2023-05-01T04:25:05.493Z,28.73
2023-05-01T04:26:05.532Z,25.86
2023-05-01T04:27:05.621Z,28.16
2023-05-01T04:28:05.658Z,27.23
2023-05-01T04:29:05.714Z,26.51
2023-05-01T04:30:05.772Z,26.17
2023-05-01T04:31:05.830Z,27.65
2023-05-01T04:32:05.911Z,28.02
2023-05-01T04:33:05.917Z,26.93
2023-05-01T04:34:05.918Z,28.16
2023-05-01T04:35:05.954Z,26.96
2023-05-01T04:36:05.968Z,26.20
2023-05-01T04:37:05.983Z,25.21
2023-05-01T04:38:06.013Z,27.93
2023-05-01T04:39:06.025Z,25.38
2023-05-01T04:40:06.071Z,26.30
2023-05-01T04:41:06.134Z,25.76
2023-05-01T04:42:06.172Z,26.99
2023-05-01T04:43:06.222Z,25.92
2023-05-01T04:44:06.225Z,26.06
2023-05-01T04:45:06.283Z,28.64
2023-05-01T04:46:06.373Z,26.43
2023-05-01T04:47:06.466Z,25.19
2023-05-01T04:48:06.512Z,27.37
2023-05-01T04:49:06.493Z,26.61
2023-05-01T04:50:06.563Z,25.61
2023-05-01T04:51:06.605Z,27.65
2023-05-01T04:52:06.659Z,28.21
2023-05-01T04:53:06.733Z,27.52
2023-05-01T04:54:06.775Z,27.48
2023-05-01T04:55:06.813Z,26.47
2023-05-01T04:56:06.860Z,26.71
2023-05-01T04:57:07.082Z,27.74
2023-05-01T04:58:06.939Z,26.75
2023-05-01T04:59:06.991Z,25.96
2023-05-01T05:00:07.006Z,28.01
2023-05-01T05:01:07.055Z,27.11
2023-05-01T05:02:07.109Z,27.31
2023-05-01T05:03:07.201Z,25.41
2023-05-01T05:04:07.265Z,26.05
2023-05-01T05:05:07.188Z,26.94
2023-05-01T05:06:07.313Z,26.47
2023-05-01T05:07:07.266Z,28.25
2023-05-01T05:08:07.294Z,27.76
2023-05-01T05:09:07.351Z,25.48
2023-05-01T05:10:07.396Z,25.99
2023-05-01T05:11:07.456Z,25.00
2023-05-01T05:12:07.496Z,26.94
2023-05-01T05:13:07.511Z,26.06
2023-05-01T05:14:07.536Z,25.00
2023-05-01T05:15:07.617Z,25.85
2023-05-01T05:16:07.651Z,25.13
2023-05-01T05:17:07.653Z,26.70
2023-05-01T05:18:07.848Z,25.00
2023-05-01T05:19:07.728Z,27.08
2023-05-01T05:20:07.753Z,25.00
2023-05-01T05:21:07.764Z,25.00
2023-05-01T05:22:07.748Z,25.00
2023-05-01T05:23:08.545Z,25.06
2023-05-01T05:24:07.788Z,25.30
2023-05-01T05:25:07.783Z,26.77
2023-05-01T05:26:07.799Z,25.72
2023-05-01T05:27:07.789Z,25.00
2023-05-01T05:28:07.788Z,25.00
2023-05-01T05:29:07.785Z,25.00
2023-05-01T05:30:07.790Z,26.37
2023-05-01T05:31:07.820Z,26.22
2023-05-01T05:32:07.819Z,26.11
2023-05-01T05:33:07.900Z,26.31
2023-05-01T05:34:07.785Z,25.15
2023-05-01T05:35:07.811Z,26.18
2023-05-01T05:36:07.797Z,26.39
2023-05-01T05:37:07.804Z,27.87
2023-05-01T05:38:07.808Z,28.55
2023-05-01T05:39:07.809Z,25.23
2023-05-01T05:40:07.840Z,26.30
2023-05-01T05:41:07.829Z,29.63
2023-05-01T05:42:07.845Z,25.00
2023-05-01T05:43:07.852Z,25.00
2023-05-01T05:44:07.867Z,25.14
2023-05-01T05:45:07.888Z,25.00
2023-05-01T05:46:07.986Z,27.98
2023-05-01T05:47:07.924Z,26.22
2023-05-01T05:48:07.937Z,25.00
2023-05-01T05:49:07.933Z,25.77
2023-05-01T05:50:07.966Z,25.98
2023-05-01T05:51:07.969Z,25.66
2023-05-01T05:52:07.979Z,25.00
2023-05-01T05:53:07.985Z,27.00
2023-05-01T05:54:07.999Z,27.56
2023-05-01T05:55:08.015Z,25.00
2023-05-01T05:56:08.047Z,28.10
2023-05-01T05:57:08.070Z,26.22
2023-05-01T05:58:08.074Z,26.54
2023-05-01T05:59:08.095Z,26.80
2023-05-01T06:00:08.120Z,25.00
2023-05-01T06:01:08.141Z,28.79
2023-05-01T06:02:08.235Z,25.06
2023-05-01T06:03:08.317Z,25.68
2023-05-01T06:04:08.195Z,25.09
2023-05-01T06:05:08.276Z,28.50
2023-05-01T06:06:08.363Z,25.27
2023-05-01T06:07:08.262Z,26.37
2023-05-01T06:08:08.275Z,25.75
2023-05-01T06:09:08.301Z,27.23
2023-05-01T06:10:08.413Z,27.91
2023-05-01T06:11:08.351Z,27.41
2023-05-01T06:12:08.372Z,26.04
2023-05-01T06:13:13.367Z,25.60
2023-05-01T06:14:08.395Z,25.88
2023-05-01T06:15:08.388Z,26.71
2023-05-01T06:16:08.585Z,26.55
2023-05-01T06:17:08.384Z,27.52
2023-05-01T06:18:08.485Z,26.64
2023-05-01T06:19:08.403Z,25.00
2023-05-01T06:20:08.388Z,27.18
2023-05-01T06:21:08.402Z,25.35
2023-05-01T06:22:08.386Z,28.37
2023-05-01T06:23:08.393Z,26.37
2023-05-01T06:24:08.380Z,26.42
2023-05-01T06:25:08.373Z,25.00
2023-05-01T06:26:08.406Z,26.90
2023-05-01T06:27:08.384Z,25.34
2023-05-01T06:28:08.371Z,25.00
2023-05-01T06:29:08.364Z,27.39
2023-05-01T06:30:08.353Z,28.34
2023-05-01T06:31:08.393Z,26.55
2023-05-01T06:32:08.357Z,25.53
2023-05-01T06:33:08.399Z,26.53
2023-05-01T06:34:08.347Z,27.53
2023-05-01T06:35:08.372Z,26.05
2023-05-01T06:36:08.346Z,25.55
2023-05-01T06:37:08.341Z,25.99
2023-05-01T06:38:08.349Z,27.08
2023-05-01T06:39:08.331Z,25.86
2023-05-01T06:40:08.341Z,27.33
2023-05-01T06:41:08.337Z,30.02
2023-05-01T06:42:08.324Z,25.00
2023-05-01T06:43:08.324Z,25.00
2023-05-01T06:44:08.303Z,28.00
2023-05-01T06:45:08.309Z,25.25
2023-05-01T06:46:08.297Z,27.63
2023-05-01T06:47:08.365Z,25.83
2023-05-01T06:48:08.359Z,26.87
2023-05-01T06:49:08.283Z,29.22
2023-05-01T06:50:08.292Z,28.24
2023-05-01T06:51:08.314Z,27.88
2023-05-01T06:52:08.270Z,26.29
2023-05-01T06:53:08.264Z,26.70
2023-05-01T06:54:08.256Z,29.42
2023-05-01T06:55:08.251Z,30.41
2023-05-01T06:56:08.248Z,26.17
2023-05-01T06:57:08.279Z,26.93
2023-05-01T06:58:22.537Z,27.07
2023-05-01T06:59:08.303Z,27.39
2023-05-01T07:00:08.239Z,27.81
2023-05-01T07:01:08.264Z,26.39
2023-05-01T07:02:08.265Z,27.00
2023-05-01T07:03:08.291Z,26.89
2023-05-01T07:04:08.247Z,26.10
2023-05-01T07:05:08.244Z,26.61
2023-05-01T07:06:08.287Z,26.44
2023-05-01T07:07:08.243Z,25.00
2023-05-01T07:08:08.220Z,25.64
2023-05-01T07:09:08.219Z,25.38
2023-05-01T07:10:08.228Z,25.44
2023-05-01T07:11:08.223Z,26.74
2023-05-01T07:12:08.219Z,26.02
2023-05-01T07:13:08.612Z,26.22
2023-05-01T07:14:08.225Z,26.65
2023-05-01T07:15:08.217Z,26.16
2023-05-01T07:16:08.265Z,25.00
2023-05-01T07:17:08.218Z,27.14
2023-05-01T07:18:08.598Z,25.00
2023-05-01T07:19:08.222Z,25.93
2023-05-01T07:20:08.226Z,26.80
2023-05-01T07:21:08.221Z,26.18
2023-05-01T07:22:08.227Z,26.72
2023-05-01T07:23:08.262Z,25.84
2023-05-01T07:24:08.363Z,25.00
2023-05-01T07:25:08.239Z,25.22
2023-05-01T07:26:08.232Z,25.00
2023-05-01T07:27:08.227Z,27.40
2023-05-01T07:28:08.260Z,26.58
2023-05-01T07:29:08.211Z,26.23
2023-05-01T07:30:08.211Z,25.85
2023-05-01T07:31:08.205Z,30.58
2023-05-01T07:32:08.253Z,31.75
2023-05-01T07:33:08.242Z,30.14
2023-05-01T07:34:08.217Z,34.40
2023-05-01T07:35:08.198Z,29.10
2023-05-01T07:36:08.211Z,29.02
2023-05-01T07:37:08.207Z,25.09
2023-05-01T07:38:08.214Z,29.22
2023-05-01T07:39:08.237Z,28.49
2023-05-01T07:40:08.228Z,28.01
2023-05-01T07:41:08.244Z,26.58
2023-05-01T07:42:08.219Z,27.34
2023-05-01T07:43:08.203Z,27.27
2023-05-01T07:44:08.202Z,30.03
2023-05-01T07:45:08.199Z,30.24
2023-05-01T07:46:08.242Z,26.64
2023-05-01T07:47:08.187Z,27.13
2023-05-01T07:48:08.255Z,25.00
2023-05-01T07:49:08.183Z,25.97
2023-05-01T07:50:08.166Z,26.96
2023-05-01T07:51:08.184Z,29.63
2023-05-01T07:52:08.192Z,28.81
2023-05-01T07:53:08.166Z,27.94
2023-05-01T07:54:08.167Z,25.46
2023-05-01T07:55:08.179Z,26.74
2023-05-01T07:56:08.155Z,25.36
2023-05-01T07:57:08.140Z,26.19
2023-05-01T07:58:08.121Z,26.68
2023-05-01T07:59:08.122Z,28.52
2023-05-01T08:00:08.117Z,25.00
2023-05-01T08:01:08.109Z,25.00
2023-05-01T08:02:08.144Z,26.80
2023-05-01T08:03:08.242Z,25.00
2023-05-01T08:04:08.265Z,25.00
2023-05-01T08:05:08.098Z,28.23
2023-05-01T08:06:08.272Z,30.48
2023-05-01T08:07:08.103Z,26.62
2023-05-01T08:08:08.113Z,25.00
2023-05-01T08:09:08.117Z,25.00
2023-05-01T08:10:08.124Z,26.85
2023-05-01T08:11:08.158Z,25.00
2023-05-01T08:12:08.122Z,25.88
2023-05-01T08:13:08.150Z,25.16
2023-05-01T08:14:08.154Z,27.65
2023-05-01T08:15:08.159Z,28.46
2023-05-01T08:16:08.203Z,25.00
2023-05-01T08:17:08.213Z,25.00
2023-05-01T08:18:08.226Z,29.59
2023-05-01T08:19:08.203Z,31.29
2023-05-01T08:20:08.201Z,32.86
2023-05-01T08:21:08.202Z,30.81
2023-05-01T08:22:08.253Z,25.09
2023-05-01T08:23:08.226Z,28.99
2023-05-01T08:24:08.222Z,30.78
2023-05-01T08:25:08.233Z,32.48
2023-05-01T08:26:08.233Z,31.97
2023-05-01T08:27:08.269Z,30.48
2023-05-01T08:28:08.246Z,30.94
2023-05-01T08:29:08.243Z,31.18
2023-05-01T08:30:08.248Z,27.58
2023-05-01T08:31:08.313Z,25.82
2023-05-01T08:32:08.255Z,32.70
2023-05-01T08:33:08.276Z,26.46
2023-05-01T08:34:08.252Z,32.31
2023-05-01T08:35:08.257Z,25.00
2023-05-01T08:36:08.265Z,25.19
2023-05-01T08:37:08.263Z,27.72
2023-05-01T08:38:08.300Z,28.30
2023-05-01T08:39:08.262Z,27.04
2023-05-01T08:40:08.265Z,25.12
2023-05-01T08:41:08.276Z,25.55
2023-05-01T08:42:08.276Z,25.00
2023-05-01T08:43:08.330Z,27.90
2023-05-01T08:44:08.265Z,26.43
2023-05-01T08:45:08.263Z,25.97
2023-05-01T08:46:08.301Z,25.00
2023-05-01T08:47:08.426Z,25.15
2023-05-01T08:48:08.296Z,27.66
2023-05-01T08:49:08.274Z,25.00
2023-05-01T08:50:08.242Z,27.08
2023-05-01T08:51:08.244Z,25.79
2023-05-01T08:52:08.241Z,27.45
2023-05-01T08:53:08.231Z,26.53
2023-05-01T08:54:08.237Z,28.22
2023-05-01T08:55:08.238Z,25.00
2023-05-01T08:56:08.230Z,27.13
2023-05-01T08:57:10.223Z,26.83
2023-05-01T08:58:08.215Z,25.00
2023-05-01T08:59:08.229Z,26.76
2023-05-01T09:00:08.196Z,32.15
2023-05-01T09:01:08.234Z,25.26
2023-05-01T09:02:08.387Z,25.00
2023-05-01T09:03:08.365Z,27.15
2023-05-01T09:04:08.232Z,25.95
2023-05-01T09:05:08.157Z,26.71
2023-05-01T09:06:08.168Z,26.09
2023-05-01T09:07:08.139Z,26.83
2023-05-01T09:08:08.125Z,26.20
2023-05-01T09:09:08.122Z,25.00
2023-05-01T09:10:08.108Z,25.35
2023-05-01T09:11:08.103Z,27.41
2023-05-01T09:12:08.103Z,33.17
2023-05-01T09:13:08.096Z,29.53
2023-05-01T09:14:08.088Z,27.85
2023-05-01T09:15:08.103Z,25.09
2023-05-01T09:16:08.140Z,36.21
2023-05-01T09:17:08.055Z,26.50
2023-05-01T09:18:08.126Z,27.24
2023-05-01T09:19:08.037Z,26.19
2023-05-01T09:20:08.042Z,27.83
2023-05-01T09:21:08.013Z,24.70
2023-05-01T09:22:08.014Z,27.07
2023-05-01T09:23:08.019Z,31.62
2023-05-01T09:24:07.989Z,36.97
2023-05-01T09:25:07.976Z,45.59
2023-05-01T09:26:07.985Z,43.39
2023-05-01T09:27:07.967Z,39.32
2023-05-01T09:28:07.961Z,35.66
2023-05-01T09:29:07.965Z,44.74
2023-05-01T09:30:07.940Z,45.57
2023-05-01T09:31:07.964Z,44.72
2023-05-01T09:32:08.039Z,40.41
2023-05-01T09:33:08.050Z,38.11
2023-05-01T09:34:08.057Z,28.47
2023-05-01T09:35:08.065Z,29.91
2023-05-01T09:36:08.123Z,30.38
2023-05-01T09:37:08.167Z,32.25
2023-05-01T09:38:08.241Z,43.65
2023-05-01T09:39:08.291Z,46.74
2023-05-01T09:40:08.369Z,46.76
2023-05-01T09:41:08.409Z,46.80
2023-05-01T09:42:08.453Z,46.91
2023-05-01T09:43:10.513Z,48.80
2023-05-01T09:44:08.464Z,48.29
2023-05-01T09:45:08.452Z,49.40
2023-05-01T09:46:08.572Z,51.49
2023-05-01T09:47:08.450Z,43.89
2023-05-01T09:48:08.527Z,35.37
2023-05-01T09:49:08.420Z,33.83
2023-05-01T09:50:08.411Z,50.74
2023-05-01T09:51:08.396Z,44.66
2023-05-01T09:52:08.382Z,40.22
2023-05-01T09:53:08.407Z,46.13
2023-05-01T09:54:08.396Z,51.43
2023-05-01T09:55:08.362Z,60.07
2023-05-01T09:56:08.350Z,57.06
2023-05-01T09:57:08.334Z,64.25
2023-05-01T09:58:08.329Z,58.84
2023-05-01T09:59:08.328Z,75.27
2023-05-01T10:00:08.661Z,72.49
2023-05-01T10:01:08.347Z,64.68
2023-05-01T10:02:08.334Z,74.29
2023-05-01T10:03:08.727Z,77.21
2023-05-01T10:04:08.522Z,51.18
2023-05-01T10:05:08.372Z,38.65
2023-05-01T10:06:08.492Z,37.82
2023-05-01T10:07:08.499Z,50.43
2023-05-01T10:08:08.576Z,52.35
2023-05-01T10:09:08.630Z,49.00
2023-05-01T10:10:08.680Z,51.92
2023-05-01T10:11:08.737Z,57.81
2023-05-01T10:12:08.803Z,49.22
2023-05-01T10:13:08.836Z,49.22
2023-05-01T10:14:08.895Z,47.35
2023-05-01T10:15:23.955Z,35.00
2023-05-01T10:16:08.916Z,35.05
2023-05-01T10:17:09.113Z,28.70
2023-05-01T10:18:08.979Z,22.86
2023-05-01T10:19:08.920Z,27.47
2023-05-01T10:20:08.888Z,42.31
2023-05-01T10:21:08.872Z,49.01
2023-05-01T10:22:08.869Z,40.39
2023-05-01T10:23:08.867Z,59.54
2023-05-01T10:24:08.867Z,60.50
2023-05-01T10:25:08.840Z,53.00
2023-05-01T10:26:08.826Z,65.46
2023-05-01T10:27:08.834Z,68.41
2023-05-01T10:28:08.825Z,88.53
2023-05-01T10:29:08.791Z,72.67
2023-05-01T10:30:08.789Z,85.60
2023-05-01T10:31:08.833Z,89.49
2023-05-01T10:32:08.777Z,88.49
2023-05-01T10:33:08.822Z,98.65
2023-05-01T10:34:08.760Z,77.96
2023-05-01T10:35:08.762Z,89.68
2023-05-01T10:36:08.777Z,112.29
2023-05-01T10:37:08.832Z,106.61
2023-05-01T10:38:08.896Z,105.87
2023-05-01T10:39:08.942Z,111.40
2023-05-01T10:40:09.024Z,119.76
2023-05-01T10:41:09.088Z,112.13
2023-05-01T10:42:09.130Z,106.17
2023-05-01T10:43:09.199Z,106.09
2023-05-01T10:44:09.265Z,117.05
2023-05-01T10:45:09.331Z,123.76
2023-05-01T10:46:09.449Z,128.10
2023-05-01T10:47:09.422Z,141.40
2023-05-01T10:48:09.538Z,151.49
2023-05-01T10:49:09.583Z,143.55
2023-05-01T10:50:09.689Z,143.60
2023-05-01T10:51:09.705Z,137.42
2023-05-01T10:52:09.723Z,141.23
2023-05-01T10:53:09.813Z,150.83
2023-05-01T10:54:09.855Z,146.91
2023-05-01T10:55:09.923Z,154.21
2023-05-01T10:56:09.985Z,160.37
2023-05-01T10:57:10.029Z,162.25
2023-05-01T10:58:10.093Z,172.58
2023-05-01T10:59:10.156Z,163.73
2023-05-01T11:00:10.235Z,165.41
2023-05-01T11:01:10.276Z,164.78
2023-05-01T11:02:10.392Z,166.20
2023-05-01T11:03:10.411Z,170.83
2023-05-01T11:04:10.431Z,177.95
2023-05-01T11:05:10.528Z,173.90
2023-05-01T11:06:10.641Z,174.36
2023-05-01T11:07:10.841Z,179.09
2023-05-01T11:08:10.666Z,175.28
2023-05-01T11:09:10.714Z,182.41
2023-05-01T11:10:10.760Z,182.12
2023-05-01T11:11:11.044Z,186.16
2023-05-01T11:12:10.833Z,189.22
2023-05-01T11:13:10.858Z,182.45
2023-05-01T11:14:10.899Z,174.03
2023-05-01T11:15:10.926Z,179.38
2023-05-01T11:16:10.979Z,185.09
2023-05-01T11:17:10.999Z,188.67
2023-05-01T11:18:11.113Z,190.49
2023-05-01T11:19:11.095Z,199.48
2023-05-01T11:20:11.137Z,219.50
2023-05-01T11:21:11.120Z,213.07
2023-05-01T11:22:11.166Z,197.29
2023-05-01T11:23:11.254Z,199.80
2023-05-01T11:24:11.251Z,199.94
2023-05-01T11:25:11.323Z,200.13
2023-05-01T11:26:11.368Z,210.80
2023-05-01T11:27:11.399Z,211.29
2023-05-01T11:28:11.464Z,198.87
2023-05-01T11:29:11.521Z,209.09
2023-05-01T11:30:11.582Z,228.54
2023-05-01T11:31:11.688Z,226.20
2023-05-01T11:32:11.866Z,214.92
2023-05-01T11:33:11.791Z,211.98
2023-05-01T11:34:11.828Z,205.56
2023-05-01T11:35:11.884Z,198.55
2023-05-01T11:36:11.940Z,196.86
2023-05-01T11:37:11.993Z,202.43
2023-05-01T11:38:12.053Z,206.13
2023-05-01T11:39:12.171Z,217.39
2023-05-01T11:40:12.168Z,218.99
2023-05-01T11:41:12.229Z,207.52
2023-05-01T11:42:12.306Z,199.28
2023-05-01T11:43:12.317Z,209.76
2023-05-01T11:44:12.357Z,211.79
2023-05-01T11:45:12.417Z,200.92
2023-05-01T11:46:12.497Z,208.84
2023-05-01T11:47:12.526Z,201.16
2023-05-01T11:48:12.617Z,217.58
2023-05-01T11:49:12.655Z,233.72
2023-05-01T11:50:12.689Z,247.47
2023-05-01T11:51:12.754Z,215.47
2023-05-01T11:52:12.801Z,196.24
2023-05-01T11:53:12.848Z,188.92
2023-05-01T11:54:15.137Z,191.97
2023-05-01T11:55:12.910Z,190.70
2023-05-01T11:56:23.138Z,191.51
2023-05-01T11:57:12.861Z,192.34
2023-05-01T11:58:12.870Z,194.37
2023-05-01T11:59:12.845Z,194.70
2023-05-01T12:00:12.838Z,198.16
2023-05-01T12:01:12.833Z,194.97
2023-05-01T12:02:12.852Z,181.72
2023-05-01T12:03:13.117Z,181.24
2023-05-01T12:04:12.984Z,175.45
2023-05-01T12:05:12.796Z,171.14
2023-05-01T12:06:12.836Z,179.26
2023-05-01T12:07:12.781Z,164.85
2023-05-01T12:08:12.764Z,168.49
2023-05-01T12:09:12.754Z,165.90
2023-05-01T12:10:12.742Z,165.20
2023-05-01T12:11:12.844Z,163.44
2023-05-01T12:12:12.731Z,158.40
2023-05-01T12:13:12.710Z,159.73
2023-05-01T12:14:12.721Z,157.90
2023-05-01T12:15:12.687Z,156.73
2023-05-01T12:16:12.688Z,151.34
2023-05-01T12:17:12.719Z,163.79
2023-05-01T12:18:12.720Z,156.62
2023-05-01T12:19:12.724Z,157.43
2023-05-01T12:20:12.780Z,153.27
2023-05-01T12:21:12.831Z,172.02
2023-05-01T12:22:12.903Z,169.69
2023-05-01T12:23:12.960Z,161.06
2023-05-01T12:24:13.018Z,166.82
2023-05-01T12:25:13.052Z,182.98
2023-05-01T12:26:13.107Z,186.46
2023-05-01T12:27:13.192Z,184.92
2023-05-01T12:28:13.227Z,193.85
2023-05-01T12:29:13.290Z,197.44
2023-05-01T12:30:13.375Z,204.02
2023-05-01T12:31:13.493Z,207.33
2023-05-01T12:32:13.459Z,208.47
2023-05-01T12:33:13.554Z,214.48
2023-05-01T12:34:13.503Z,225.86
2023-05-01T12:35:13.536Z,230.92
2023-05-01T12:36:13.563Z,240.14
2023-05-01T12:37:13.588Z,241.87
2023-05-01T12:38:13.624Z,249.93
2023-05-01T12:39:13.697Z,250.00
2023-05-01T12:40:13.759Z,249.03
2023-05-01T12:41:13.776Z,245.12
2023-05-01T12:42:13.812Z,249.81
2023-05-01T12:43:13.898Z,250.00
2023-05-01T12:44:13.933Z,249.64
2023-05-01T12:45:13.994Z,248.56
2023-05-01T12:46:14.137Z,250.00
2023-05-01T12:47:14.109Z,248.58
2023-05-01T12:48:14.217Z,249.97
2023-05-01T12:49:14.192Z,249.86